Time;durP1;ratioP1;P1;durP2;ratioP2;P2;SDS_P1;SDS_P2;PMS_P1;PMS_P2;Temp;Humidity;BMP_temperature;BMP_pressure;BME280_temperature;BME280_humidity;BME280_pressure;Samples;Min_cycle;Max_cycle;Signal;HPM_P1;HPM_P2
2021/12/09 00:01:22;;;;;;;3.30;1.83;;;4.10;83.60;;;;;;5057291;28;20028;-66
2021/12/09 00:03:59;;;;;;;3.05;1.85;;;4.10;83.70;;;;;;5055755;28;20279;-66
2021/12/09 00:06:28;;;;;;;2.75;1.58;;;4.20;83.80;;;;;;5055481;28;20032;-64
2021/12/09 00:09:00;;;;;;;2.67;1.70;;;4.20;83.70;;;;;;5057222;28;20033;-66
2021/12/09 00:11:28;;;;;;;2.13;1.70;;;4.20;83.70;;;;;;5055735;28;20037;-66
2021/12/09 00:13:55;;;;;;;2.33;1.92;;;4.20;83.50;;;;;;5056902;28;20067;-66
2021/12/09 00:16:21;;;;;;;2.60;1.73;;;4.20;83.50;;;;;;5060049;28;20021;-66
2021/12/09 00:18:47;;;;;;;1.95;1.70;;;4.20;83.60;;;;;;5061692;28;20033;-66
2021/12/09 00:21:13;;;;;;;3.45;1.77;;;4.20;83.60;;;;;;5062352;28;20028;-66
2021/12/09 00:23:39;;;;;;;2.03;1.80;;;4.20;83.60;;;;;;5061764;28;20480;-65
2021/12/09 00:26:05;;;;;;;2.85;2.38;;;4.20;83.50;;;;;;5061902;28;20032;-66
2021/12/09 00:28:30;;;;;;;3.75;2.67;;;4.20;83.40;;;;;;5059979;28;20037;-66
2021/12/09 00:30:56;;;;;;;3.35;2.90;;;4.20;83.30;;;;;;5059631;28;20120;-66
2021/12/09 00:33:22;;;;;;;2.97;2.55;;;4.20;83.30;;;;;;5062072;28;20128;-66
2021/12/09 00:35:55;;;;;;;3.03;2.50;;;4.20;83.30;;;;;;5061726;28;20075;-65
2021/12/09 00:38:33;;;;;;;3.20;2.60;;;4.20;83.30;;;;;;5058939;28;20462;-65
2021/12/09 00:40:59;;;;;;;3.38;2.45;;;4.20;83.40;;;;;;5060212;28;20033;-66
2021/12/09 00:43:25;;;;;;;2.50;2.30;;;4.20;84.20;;;;;;5059737;28;20499;-66
2021/12/09 00:45:52;;;;;;;2.70;2.40;;;4.20;83.40;;;;;;5059168;28;20043;-66
2021/12/09 00:48:18;;;;;;;2.42;2.20;;;4.20;83.40;;;;;;5058308;28;20032;-66
2021/12/09 00:50:44;;;;;;;2.97;2.15;;;4.20;83.40;;;;;;5060587;28;20037;-67
2021/12/09 00:53:10;;;;;;;2.40;2.20;;;4.20;83.40;;;;;;5059504;28;20116;-66
2021/12/09 00:55:36;;;;;;;2.17;1.98;;;4.30;83.40;;;;;;5060638;28;20062;-66
2021/12/09 00:58:03;;;;;;;2.58;2.20;;;4.30;83.50;;;;;;5061149;28;20041;-66
2021/12/09 01:00:31;;;;;;;2.40;2.20;;;4.30;83.50;;;;;;5059366;28;20067;-66
2021/12/09 01:02:58;;;;;;;2.47;2.10;;;4.30;84.20;;;;;;5061156;28;20036;-66
2021/12/09 01:05:25;;;;;;;2.53;1.95;;;4.30;83.30;;;;;;5060222;28;20057;-66
2021/12/09 01:07:51;;;;;;;3.63;2.10;;;4.30;83.30;;;;;;5060645;28;20064;-66
2021/12/09 01:10:17;;;;;;;3.13;2.10;;;4.30;83.20;;;;;;5060835;28;20534;-66
2021/12/09 01:12:44;;;;;;;2.30;2.10;;;4.30;83.10;;;;;;5059700;28;20127;-66
2021/12/09 01:15:11;;;;;;;2.65;2.00;;;4.30;83.10;;;;;;5062065;28;20033;-66
2021/12/09 01:17:38;;;;;;;2.97;2.13;;;4.30;83.10;;;;;;5060044;28;20694;-66
2021/12/09 01:20:05;;;;;;;3.40;2.28;;;4.30;83.20;;;;;;5061749;28;20400;-67
2021/12/09 01:22:38;;;;;;;3.53;2.17;;;4.30;82.60;;;;;;5059798;28;20056;-66
2021/12/09 01:25:06;;;;;;;2.17;1.98;;;4.30;83.20;;;;;;5049629;28;20033;-64
2021/12/09 01:27:34;;;;;;;2.45;2.08;;;4.30;83.30;;;;;;5059481;28;20029;-66
2021/12/09 01:30:07;;;;;;;2.88;2.30;;;4.30;83.20;;;;;;5061123;28;20111;-66
2021/12/09 01:32:33;;;;;;;3.50;2.50;;;4.30;83.30;;;;;;5045966;28;20040;-66
2021/12/09 01:34:59;;;;;;;2.60;2.40;;;4.20;83.20;;;;;;5060808;28;20493;-66
2021/12/09 01:37:24;;;;;;;3.53;2.92;;;4.30;83.30;;;;;;5059576;28;20036;-66
2021/12/09 01:39:50;;;;;;;3.20;2.92;;;4.20;83.30;;;;;;5059860;28;20039;-66
2021/12/09 01:42:17;;;;;;;3.20;2.90;;;4.20;83.30;;;;;;5059844;28;20052;-65
2021/12/09 01:44:43;;;;;;;4.90;3.30;;;4.20;83.30;;;;;;5058579;28;20029;-65
2021/12/09 01:47:09;;;;;;;3.13;2.80;;;4.20;83.30;;;;;;5060106;28;20518;-66
2021/12/09 01:49:34;;;;;;;3.33;3.00;;;4.20;83.40;;;;;;5059744;28;20557;-65
2021/12/09 01:52:00;;;;;;;4.95;3.28;;;4.20;83.40;;;;;;5058655;28;20061;-65
2021/12/09 01:54:26;;;;;;;3.78;3.40;;;4.20;83.40;;;;;;5059193;28;20044;-66
2021/12/09 01:56:51;;;;;;;5.00;3.50;;;4.30;83.30;;;;;;5058119;28;20178;-66
2021/12/09 01:59:17;;;;;;;4.60;3.80;;;4.20;83.30;;;;;;5059716;28;20483;-66
2021/12/09 02:01:43;;;;;;;3.92;3.53;;;4.30;83.30;;;;;;5065568;28;20112;-66
2021/12/09 02:04:11;;;;;;;4.63;3.63;;;4.20;83.20;;;;;;5059999;28;20174;-65
2021/12/09 02:06:40;;;;;;;3.97;3.60;;;4.20;83.30;;;;;;5058257;28;20072;-65
2021/12/09 02:09:08;;;;;;;4.18;3.40;;;4.30;83.30;;;;;;5058948;28;20048;-65
2021/12/09 02:11:35;;;;;;;3.85;3.17;;;4.20;83.30;;;;;;5058620;28;20039;-66
2021/12/09 02:14:01;;;;;;;3.83;3.17;;;4.20;83.20;;;;;;5058639;28;20045;-66
2021/12/09 02:16:27;;;;;;;3.45;2.95;;;4.20;83.20;;;;;;5059105;28;20037;-66
2021/12/09 02:18:53;;;;;;;3.92;2.95;;;4.20;83.30;;;;;;5058826;28;20052;-66
2021/12/09 02:21:22;;;;;;;4.07;3.00;;;4.20;83.40;;;;;;5059405;28;20033;-65
2021/12/09 02:23:51;;;;;;;3.30;2.92;;;4.10;83.30;;;;;;5059414;28;20029;-65
2021/12/09 02:26:20;;;;;;;2.92;2.63;;;4.10;83.40;;;;;;5060050;28;20043;-66
2021/12/09 02:28:48;;;;;;;3.08;2.78;;;4.10;83.50;;;;;;5057962;28;20119;-66
2021/12/09 02:31:14;;;;;;;5.00;3.17;;;4.10;83.50;;;;;;5057947;28;20036;-66
2021/12/09 02:33:40;;;;;;;3.58;3.20;;;4.00;83.40;;;;;;5059220;28;20029;-65
2021/12/09 02:36:06;;;;;;;6.80;4.00;;;4.10;83.50;;;;;;5060163;28;20029;-65
2021/12/09 02:38:32;;;;;;;5.80;3.78;;;4.00;83.50;;;;;;5056697;28;20028;-66
2021/12/09 02:40:58;;;;;;;6.57;4.00;;;4.00;83.60;;;;;;5059744;28;20044;-66
2021/12/09 02:43:28;;;;;;;5.00;3.28;;;4.00;83.70;;;;;;5059012;28;20059;-66
2021/12/09 02:45:55;;;;;;;3.92;2.55;;;4.00;83.70;;;;;;5047981;28;20047;-65
2021/12/09 02:48:23;;;;;;;3.70;2.95;;;4.00;83.80;;;;;;5058220;28;20033;-66
2021/12/09 02:50:50;;;;;;;3.08;2.83;;;4.00;83.90;;;;;;5056709;28;20074;-65
2021/12/09 02:53:16;;;;;;;2.88;2.42;;;3.90;83.90;;;;;;5058829;28;20033;-65
2021/12/09 02:55:43;;;;;;;2.85;2.50;;;4.00;84.00;;;;;;5058272;28;20565;-65
2021/12/09 02:58:08;;;;;;;3.60;2.78;;;3.90;84.40;;;;;;5057879;28;20040;-66
2021/12/09 03:01:04;;;;;;;2.78;2.38;;;3.90;84.00;;;;;;5056374;28;20040;-66
2021/12/09 03:03:30;;;;;;;2.65;2.33;;;3.90;84.20;;;;;;5040076;28;20035;-65
2021/12/09 03:05:58;;;;;;;3.35;2.67;;;4.00;84.00;;;;;;5057339;28;20536;-65
2021/12/09 03:08:34;;;;;;;3.70;2.80;;;4.00;84.10;;;;;;5058038;28;20033;-65
2021/12/09 03:11:14;;;;;;;2.88;2.40;;;4.00;84.10;;;;;;5056686;28;20116;-66
2021/12/09 03:13:42;;;;;;;2.95;2.50;;;4.00;84.20;;;;;;5058790;28;20037;-65
2021/12/09 03:16:08;;;;;;;2.20;2.00;;;4.00;84.20;;;;;;5058439;28;20056;-66
2021/12/09 03:18:43;;;;;;;2.80;2.10;;;4.00;84.20;;;;;;5056569;28;20036;-66
2021/12/09 03:21:24;;;;;;;2.10;1.90;;;4.00;84.20;;;;;;5058899;28;20135;-65
2021/12/09 03:23:51;;;;;;;2.30;2.10;;;4.10;84.30;;;;;;5058487;28;20036;-65
2021/12/09 03:26:25;;;;;;;2.00;1.80;;;4.10;84.10;;;;;;5057840;28;20093;-65
2021/12/09 03:28:52;;;;;;;1.90;1.80;;;4.10;84.00;;;;;;5040042;28;20456;-66
2021/12/09 03:31:17;;;;;;;1.80;1.70;;;4.10;84.00;;;;;;5057719;28;20033;-65
2021/12/09 03:33:43;;;;;;;1.90;1.80;;;4.10;84.00;;;;;;5057852;28;20511;-66
2021/12/09 03:36:09;;;;;;;1.75;1.65;;;4.10;84.00;;;;;;5058469;28;20115;-66
2021/12/09 03:38:35;;;;;;;1.40;1.30;;;4.10;83.90;;;;;;5057154;28;20044;-66
2021/12/09 03:41:02;;;;;;;1.85;1.75;;;4.10;83.90;;;;;;5059462;28;20245;-66
2021/12/09 03:43:28;;;;;;;1.85;1.75;;;4.10;83.90;;;;;;5057189;28;20783;-65
2021/12/09 03:45:57;;;;;;;1.75;1.65;;;4.10;84.60;;;;;;5058131;28;20033;-65
2021/12/09 03:48:26;;;;;;;1.85;1.75;;;4.10;84.00;;;;;;5057919;28;20416;-66
2021/12/09 03:50:53;;;;;;;2.30;1.85;;;4.10;84.20;;;;;;5020651;28;20060;-66
2021/12/09 03:53:19;;;;;;;1.70;1.60;;;4.20;84.20;;;;;;5057669;28;20035;-65
2021/12/09 03:55:47;;;;;;;2.05;1.90;;;4.10;84.10;;;;;;5057330;28;20049;-66
2021/12/09 03:58:13;;;;;;;1.90;1.70;;;4.10;84.00;;;;;;5057590;28;20486;-65
2021/12/09 04:00:40;;;;;;;2.05;1.90;;;4.10;84.00;;;;;;5057124;28;20039;-63
2021/12/09 04:03:07;;;;;;;2.65;2.22;;;4.10;83.90;;;;;;5057990;28;20402;-66
2021/12/09 04:05:33;;;;;;;2.08;1.88;;;4.20;84.00;;;;;;5057860;28;20028;-65
2021/12/09 04:07:58;;;;;;;2.30;2.10;;;4.20;84.00;;;;;;5056631;28;20064;-65
2021/12/09 04:10:24;;;;;;;2.60;2.40;;;4.20;84.00;;;;;;5059528;28;20159;-66
2021/12/09 04:12:50;;;;;;;3.03;2.40;;;4.20;84.00;;;;;;5057336;28;20045;-65
2021/12/09 04:15:16;;;;;;;3.03;2.40;;;4.20;83.90;;;;;;5056608;28;20052;-66
2021/12/09 04:17:42;;;;;;;2.63;2.42;;;4.20;83.90;;;;;;5057208;28;20087;-65
2021/12/09 04:20:09;;;;;;;3.95;3.42;;;4.20;83.80;;;;;;5056485;28;20048;-65
2021/12/09 04:22:36;;;;;;;3.88;2.70;;;4.20;83.90;;;;;;5057390;28;20112;-66
2021/12/09 04:25:04;;;;;;;2.97;2.60;;;4.20;83.90;;;;;;5057533;28;20045;-65
2021/12/09 04:27:30;;;;;;;2.85;2.53;;;4.20;84.00;;;;;;5056794;28;20032;-65
2021/12/09 04:29:56;;;;;;;2.72;2.53;;;4.20;84.00;;;;;;5056686;28;20094;-66
2021/12/09 04:32:21;;;;;;;2.92;2.63;;;4.20;84.00;;;;;;5055911;28;20037;-64
2021/12/09 04:34:47;;;;;;;2.45;2.25;;;4.20;84.00;;;;;;5054603;28;20041;-65
2021/12/09 04:37:13;;;;;;;3.72;2.63;;;4.20;84.00;;;;;;5058225;28;20087;-65
2021/12/09 04:39:40;;;;;;;3.20;2.90;;;4.20;84.00;;;;;;5057854;28;20438;-65
2021/12/09 04:42:06;;;;;;;4.22;3.25;;;4.20;84.00;;;;;;5058195;28;20048;-65
2021/12/09 04:44:32;;;;;;;4.82;3.10;;;4.20;83.90;;;;;;5057245;28;20025;-65
2021/12/09 04:47:01;;;;;;;3.50;3.10;;;4.20;83.80;;;;;;5057095;28;20040;-66
2021/12/09 04:49:27;;;;;;;5.07;3.22;;;4.20;83.70;;;;;;5044184;28;20068;-65
2021/12/09 04:51:53;;;;;;;4.13;3.22;;;4.20;83.70;;;;;;5056822;28;20458;-64
2021/12/09 04:54:18;;;;;;;4.65;3.83;;;4.20;83.70;;;;;;5057736;28;20041;-65
2021/12/09 04:56:45;;;;;;;5.30;3.97;;;4.20;83.70;;;;;;5056525;28;20043;-65
2021/12/09 04:59:10;;;;;;;5.07;4.10;;;4.20;83.70;;;;;;5056417;28;20060;-65
2021/12/09 05:01:36;;;;;;;4.40;3.58;;;4.20;83.70;;;;;;5057133;28;20144;-65
2021/12/09 05:04:03;;;;;;;4.90;3.15;;;4.20;83.80;;;;;;5059766;28;20504;-64
2021/12/09 05:06:29;;;;;;;4.32;3.03;;;4.20;83.80;;;;;;5060021;28;20106;-65
2021/12/09 05:08:56;;;;;;;3.95;2.70;;;4.20;83.90;;;;;;5059990;28;20061;-65
2021/12/09 05:14:06;;;;;;;7.03;3.58;;;4.10;83.90;;;;;;5059234;28;20524;-65
2021/12/09 05:16:33;;;;;;;5.63;3.63;;;4.20;84.80;;;;;;5059305;28;20040;-65
2021/12/09 05:18:58;;;;;;;4.95;3.22;;;4.10;84.00;;;;;;5060454;28;20098;-65
2021/12/09 05:21:39;;;;;;;4.97;3.40;;;4.10;84.00;;;;;;5060124;28;20040;-65
2021/12/09 05:24:07;;;;;;;4.70;2.70;;;4.10;84.20;;;;;;5025982;28;20644;-65
2021/12/09 05:26:39;;;;;;;4.65;3.03;;;4.10;84.20;;;;;;5059649;28;20044;-61
2021/12/09 05:29:05;;;;;;;4.32;3.10;;;4.00;84.20;;;;;;5061180;28;20102;-64
2021/12/09 05:34:16;;;;;;;3.10;2.80;;;4.00;84.20;;;;;;5045454;28;20151;-65
2021/12/09 05:36:41;;;;;;;6.28;3.30;;;4.00;84.30;;;;;;5056154;28;20028;-65
2021/12/09 05:39:13;;;;;;;5.78;3.17;;;4.00;84.30;;;;;;5060827;28;20040;-65
2021/12/09 05:41:39;;;;;;;4.95;3.33;;;4.00;84.40;;;;;;5057845;28;20112;-65
2021/12/09 05:44:07;;;;;;;4.57;3.08;;;4.00;84.40;;;;;;5057640;28;20087;-63
2021/12/09 05:46:35;;;;;;;4.60;3.30;;;4.00;84.40;;;;;;5058038;28;20032;-64
2021/12/09 05:49:01;;;;;;;4.40;3.10;;;4.00;84.50;;;;;;5058055;28;20045;-64
2021/12/09 05:51:27;;;;;;;4.68;2.90;;;4.00;84.60;;;;;;5057303;28;20039;-64
2021/12/09 05:53:52;;;;;;;6.10;3.00;;;3.90;84.60;;;;;;5057680;28;20036;-64
2021/12/09 05:56:19;;;;;;;5.88;2.90;;;3.90;84.60;;;;;;5059142;28;20033;-64
2021/12/09 05:58:45;;;;;;;3.92;2.83;;;3.90;84.70;;;;;;5039702;28;20395;-64
2021/12/09 06:01:10;;;;;;;4.88;2.90;;;3.90;85.60;;;;;;5058320;28;20033;-64
2021/12/09 06:03:36;;;;;;;4.88;3.08;;;3.90;84.80;;;;;;5060496;28;20033;-63
2021/12/09 06:06:02;;;;;;;6.25;3.60;;;3.90;84.90;;;;;;5058615;28;20029;-64
2021/12/09 06:08:27;;;;;;;5.45;3.60;;;3.80;84.90;;;;;;5058330;28;20351;-64
2021/12/09 06:10:53;;;;;;;6.90;3.78;;;3.80;84.90;;;;;;5060478;28;20377;-64
2021/12/09 06:13:19;;;;;;;5.47;3.90;;;3.80;85.00;;;;;;5057929;28;20045;-64
2021/12/09 06:15:45;;;;;;;4.28;3.40;;;3.80;85.10;;;;;;5058932;28;20040;-64
2021/12/09 06:18:11;;;;;;;5.50;3.65;;;3.90;85.10;;;;;;5059079;28;20115;-64
2021/12/09 06:20:37;;;;;;;7.45;3.42;;;3.90;85.10;;;;;;5058470;28;20471;-65
2021/12/09 06:23:03;;;;;;;5.70;3.72;;;3.90;85.00;;;;;;5059273;28;20419;-64
2021/12/09 06:25:31;;;;;;;17.10;8.52;;;3.90;84.90;;;;;;5059157;28;20032;-64
2021/12/09 06:27:57;;;;;;;17.15;10.25;;;4.00;84.80;;;;;;5058171;28;20052;-65
2021/12/09 06:30:24;;;;;;;11.90;7.70;;;4.00;84.90;;;;;;5058569;28;20041;-63
2021/12/09 06:32:50;;;;;;;17.30;7.68;;;4.00;84.70;;;;;;5059186;28;20032;-65
2021/12/09 06:35:17;;;;;;;10.07;5.97;;;4.00;84.60;;;;;;5059412;28;20412;-64
2021/12/09 06:37:45;;;;;;;8.23;5.47;;;4.00;84.60;;;;;;5058879;28;20415;-64
2021/12/09 06:40:14;;;;;;;7.57;5.03;;;4.10;84.60;;;;;;5058479;28;20427;-65
2021/12/09 06:42:41;;;;;;;7.47;4.53;;;4.10;84.50;;;;;;5060103;28;20415;-66
2021/12/09 06:45:09;;;;;;;6.82;4.38;;;4.10;84.30;;;;;;5058761;28;20123;-64
2021/12/09 06:47:35;;;;;;;5.38;3.60;;;4.10;84.20;;;;;;5057763;28;20082;-65
2021/12/09 06:50:00;;;;;;;5.18;3.58;;;4.10;84.20;;;;;;5057961;28;20068;-65
2021/12/09 06:52:26;;;;;;;7.80;3.63;;;4.10;84.10;;;;;;5058810;28;20037;-65
2021/12/09 06:54:51;;;;;;;5.75;3.22;;;4.10;84.10;;;;;;5058214;28;20040;-63
2021/12/09 06:57:17;;;;;;;8.32;3.42;;;4.10;84.00;;;;;;5058050;28;20063;-65
2021/12/09 06:59:43;;;;;;;7.25;2.90;;;4.10;84.10;;;;;;5058472;28;20040;-63
2021/12/09 07:02:08;;;;;;;7.07;2.60;;;4.10;84.90;;;;;;5058445;28;20041;-64
2021/12/09 07:04:34;;;;;;;6.40;2.65;;;4.10;84.00;;;;;;5057557;28;20037;-66
2021/12/09 07:07:00;;;;;;;7.25;3.40;;;4.10;84.00;;;;;;5058025;28;20032;-65
2021/12/09 07:09:29;;;;;;;4.70;2.40;;;4.10;83.90;;;;;;5057229;28;20273;-65
2021/12/09 07:11:55;;;;;;;5.03;2.80;;;4.10;83.90;;;;;;5057238;28;20473;-64
2021/12/09 07:14:21;;;;;;;7.00;3.17;;;4.10;83.90;;;;;;5057655;28;20040;-65
2021/12/09 07:16:47;;;;;;;4.85;2.33;;;4.10;83.90;;;;;;5056252;28;20037;-65
2021/12/09 07:19:12;;;;;;;6.32;2.70;;;4.00;83.80;;;;;;5057372;28;20123;-65
2021/12/09 07:21:38;;;;;;;7.85;3.55;;;4.00;83.80;;;;;;5056758;28;20056;-66
2021/12/09 07:24:04;;;;;;;6.95;3.60;;;4.00;83.80;;;;;;5058700;28;20036;-65
2021/12/09 07:26:32;;;;;;;7.55;3.28;;;4.00;83.70;;;;;;5057773;28;20322;-65
2021/12/09 07:28:59;;;;;;;6.28;2.70;;;4.00;83.80;;;;;;5056663;28;20151;-65
2021/12/09 07:31:27;;;;;;;7.32;3.00;;;4.10;83.70;;;;;;5056431;28;20036;-65
2021/12/09 07:33:54;;;;;;;9.30;2.90;;;4.00;83.60;;;;;;5044973;28;20144;-65
2021/12/09 07:36:20;;;;;;;8.75;3.10;;;4.00;83.60;;;;;;5057008;28;20037;-65
2021/12/09 07:38:46;;;;;;;13.02;3.10;;;4.00;83.60;;;;;;5057863;28;20032;-65
2021/12/09 07:41:16;;;;;;;6.18;2.58;;;4.00;83.50;;;;;;5040345;28;20044;-66
2021/12/09 07:43:43;;;;;;;7.47;2.83;;;4.00;83.50;;;;;;5059175;28;20033;-65
2021/12/09 07:46:09;;;;;;;5.97;2.70;;;4.00;83.70;;;;;;5038057;28;20412;-65
2021/12/09 07:48:34;;;;;;;9.10;2.70;;;4.00;83.60;;;;;;5056556;28;20071;-65
2021/12/09 07:51:00;;;;;;;4.32;2.40;;;4.00;83.70;;;;;;5057391;28;20056;-65
2021/12/09 07:53:26;;;;;;;6.70;2.17;;;4.00;84.60;;;;;;5056945;28;20428;-65
2021/12/09 07:55:53;;;;;;;6.53;2.38;;;4.00;83.80;;;;;;5057745;28;20040;-66
2021/12/09 07:58:19;;;;;;;7.10;2.33;;;4.10;83.90;;;;;;5057274;28;20570;-65
2021/12/09 08:00:45;;;;;;;7.20;2.58;;;4.10;83.80;;;;;;5057364;28;20062;-65
2021/12/09 08:03:12;;;;;;;4.85;2.65;;;4.10;83.70;;;;;;5057555;28;20060;-64
2021/12/09 08:05:40;;;;;;;6.43;3.08;;;4.10;83.60;;;;;;5057725;28;20029;-65
2021/12/09 08:08:07;;;;;;;8.35;3.20;;;4.20;83.70;;;;;;5056471;28;20132;-64
2021/12/09 08:10:34;;;;;;;7.75;3.58;;;4.20;83.60;;;;;;5055985;28;20467;-65
2021/12/09 08:13:00;;;;;;;6.78;2.78;;;4.20;83.60;;;;;;5052723;28;20039;-65
2021/12/09 08:15:34;;;;;;;6.70;3.03;;;4.20;83.50;;;;;;5043746;28;20527;-65
2021/12/09 08:18:04;;;;;;;4.65;2.42;;;4.30;83.60;;;;;;5057540;28;20032;-63
2021/12/09 08:20:31;;;;;;;6.45;3.20;;;4.30;83.50;;;;;;5039764;28;20032;-65
2021/12/09 08:22:57;;;;;;;7.85;5.03;;;4.30;83.50;;;;;;5057195;28;20033;-64
2021/12/09 08:25:23;;;;;;;8.10;5.38;;;4.40;83.50;;;;;;5057529;28;20514;-65
2021/12/09 08:27:50;;;;;;;6.35;4.43;;;4.40;83.40;;;;;;5055251;28;20036;-62
2021/12/09 08:30:20;;;;;;;9.00;4.45;;;4.40;83.30;;;;;;5054029;28;20041;-64
2021/12/09 08:32:46;;;;;;;7.88;4.32;;;4.40;83.20;;;;;;5055428;28;20670;-64
2021/12/09 08:35:12;;;;;;;7.18;3.90;;;4.40;84.00;;;;;;5057512;28;20152;-64
2021/12/09 08:37:38;;;;;;;6.57;3.80;;;4.50;83.20;;;;;;5041065;28;20053;-65
2021/12/09 08:40:06;;;;;;;7.53;3.85;;;4.50;83.20;;;;;;5055958;28;20487;-65
2021/12/09 08:42:31;;;;;;;8.10;3.95;;;4.50;83.10;;;;;;5057942;28;20389;-65
2021/12/09 08:44:57;;;;;;;7.70;3.88;;;4.50;83.10;;;;;;5061627;28;20043;-64
2021/12/09 08:47:23;;;;;;;10.98;4.80;;;4.60;83.10;;;;;;5058021;28;20507;-65
2021/12/09 08:49:48;;;;;;;13.57;5.70;;;4.60;83.00;;;;;;5060934;28;20504;-64
2021/12/09 08:52:15;;;;;;;15.68;5.00;;;4.60;82.80;;;;;;5057550;28;20029;-64
2021/12/09 08:54:40;;;;;;;12.30;5.03;;;4.60;82.80;;;;;;5059864;28;20131;-64
2021/12/09 08:57:06;;;;;;;11.32;3.90;;;4.60;82.80;;;;;;5058357;28;20107;-64
2021/12/09 08:59:32;;;;;;;6.22;3.10;;;4.60;82.80;;;;;;5058378;28;20029;-64
2021/12/09 09:01:58;;;;;;;9.50;6.22;;;4.60;82.80;;;;;;5056373;28;20086;-64
2021/12/09 09:04:23;;;;;;;6.88;4.80;;;4.60;82.80;;;;;;5059667;28;20024;-64
2021/12/09 09:06:54;;;;;;;6.90;3.40;;;4.60;82.80;;;;;;5061025;28;20688;-64
2021/12/09 09:09:20;;;;;;;7.53;3.70;;;4.60;82.80;;;;;;5063041;28;20040;-65
2021/12/09 09:11:46;;;;;;;8.85;4.10;;;4.60;82.80;;;;;;5060578;28;20060;-65
2021/12/09 09:14:12;;;;;;;7.55;4.45;;;4.60;82.80;;;;;;5061987;28;20356;-65
2021/12/09 09:16:41;;;;;;;7.28;4.22;;;4.60;82.80;;;;;;5060877;28;20127;-61
2021/12/09 09:19:07;;;;;;;10.07;4.70;;;4.60;82.70;;;;;;5061859;28;20080;-64
2021/12/09 09:21:34;;;;;;;9.75;4.78;;;4.60;82.70;;;;;;5061550;28;20048;-64
2021/12/09 09:24:00;;;;;;;7.68;4.22;;;4.60;82.80;;;;;;5059888;28;20037;-64
2021/12/09 09:26:27;;;;;;;8.45;5.55;;;4.60;82.90;;;;;;5058192;28;20071;-64
2021/12/09 09:28:53;;;;;;;9.45;4.43;;;4.60;83.00;;;;;;5058096;28;20039;-64
2021/12/09 09:31:20;;;;;;;6.82;4.07;;;4.60;83.10;;;;;;5060506;28;20115;-65
2021/12/09 09:33:46;;;;;;;7.35;4.13;;;4.60;83.20;;;;;;5059740;28;20029;-65
2021/12/09 09:36:12;;;;;;;6.63;3.35;;;4.70;83.30;;;;;;5057760;28;20496;-65
2021/12/09 09:38:38;;;;;;;6.32;4.35;;;4.70;83.20;;;;;;5056693;28;20036;-64
2021/12/09 09:41:10;;;;;;;7.18;4.05;;;4.70;83.20;;;;;;5059348;28;20082;-64
2021/12/09 09:46:19;;;;;;;7.82;3.50;;;4.70;83.00;;;;;;5060173;28;20041;-65
2021/12/09 09:48:46;;;;;;;6.25;3.50;;;4.80;83.30;;;;;;5056175;28;20036;-66
2021/12/09 09:51:12;;;;;;;7.50;3.13;;;4.80;83.20;;;;;;5059712;28;20029;-66
2021/12/09 09:53:41;;;;;;;7.97;3.38;;;4.80;83.20;;;;;;5060675;28;20058;-65
2021/12/09 09:56:13;;;;;;;6.18;2.92;;;4.90;83.20;;;;;;5056631;28;20135;-66
2021/12/09 09:58:44;;;;;;;3.72;2.65;;;4.90;83.00;;;;;;5055513;28;20051;-65
2021/12/09 10:01:10;;;;;;;6.95;2.75;;;4.90;82.80;;;;;;5058457;28;20044;-65
2021/12/09 10:03:45;;;;;;;7.43;3.50;;;5.00;82.50;;;;;;5054552;28;20121;-66
2021/12/09 10:06:13;;;;;;;8.25;3.70;;;5.00;82.30;;;;;;5040032;28;20037;-65
2021/12/09 10:08:39;;;;;;;6.88;3.45;;;5.00;82.20;;;;;;5057899;28;20043;-65
2021/12/09 10:11:05;;;;;;;5.25;3.30;;;5.00;82.10;;;;;;5060011;28;20044;-66
2021/12/09 10:13:37;;;;;;;6.60;3.30;;;5.00;82.10;;;;;;5060982;28;20131;-65
2021/12/09 10:16:14;;;;;;;5.93;4.07;;;5.00;82.00;;;;;;5060641;28;20044;-65
2021/12/09 10:18:43;;;;;;;5.00;3.05;;;4.90;82.00;;;;;;5059964;28;20041;-65
2021/12/09 10:21:30;;;;;;;6.57;3.53;;;4.90;82.00;;;;;;5042639;28;21243;-66
2021/12/09 10:24:06;;;;;;;8.60;3.38;;;4.90;82.00;;;;;;5059129;28;20485;-66
2021/12/09 10:26:36;;;;;;;7.70;4.57;;;4.90;81.90;;;;;;5056448;28;20043;-66
2021/12/09 10:29:24;;;;;;;9.77;4.70;;;4.90;82.00;;;;;;5059888;28;20044;-66
2021/12/09 10:31:54;;;;;;;6.93;3.20;;;4.90;81.90;;;;;;5057806;28;20029;-66
2021/12/09 10:34:43;;;;;;;5.75;3.13;;;4.90;81.80;;;;;;5059442;28;20041;-66
2021/12/09 10:37:12;;;;;;;8.40;3.58;;;4.90;81.60;;;;;;5039662;28;20029;-65
2021/12/09 10:39:40;;;;;;;6.90;3.83;;;4.90;81.80;;;;;;5058970;28;20120;-66
2021/12/09 10:42:13;;;;;;;6.80;4.05;;;4.90;81.90;;;;;;5058486;28;20045;-66
2021/12/09 10:44:40;;;;;;;6.45;3.80;;;4.90;82.00;;;;;;5058901;28;20535;-66
2021/12/09 10:47:13;;;;;;;5.70;3.30;;;4.90;82.00;;;;;;5055548;28;20056;-66
2021/12/09 10:50:06;;;;;;;6.18;3.25;;;4.90;82.00;;;;;;5058824;28;20028;-65
2021/12/09 10:52:43;;;;;;;6.43;4.25;;;4.90;81.90;;;;;;5059244;28;20044;-65
2021/12/09 10:55:24;;;;;;;6.07;2.95;;;4.90;81.80;;;;;;5058173;28;20523;-65
2021/12/09 10:58:00;;;;;;;6.22;3.17;;;5.00;81.80;;;;;;5060078;28;20040;-66
2021/12/09 11:00:34;;;;;;;8.82;3.63;;;5.00;82.60;;;;;;5058031;28;20033;-65
2021/12/09 11:03:22;;;;;;;5.05;3.30;;;4.90;81.70;;;;;;5059066;28;20673;-66
2021/12/09 11:06:09;;;;;;;4.47;3.03;;;4.90;81.80;;;;;;5057647;28;20090;-66
2021/12/09 11:08:36;;;;;;;6.57;3.17;;;5.00;82.00;;;;;;5058113;28;20036;-65
2021/12/09 11:11:20;;;;;;;6.07;3.40;;;5.00;82.10;;;;;;5057974;28;20041;-66
2021/12/09 11:13:53;;;;;;;6.17;3.27;;;5.00;82.40;;;;;;5059932;28;20036;-67
2021/12/09 11:16:26;;;;;;;6.00;3.72;;;5.00;82.00;;;;;;5059417;28;20525;-66
2021/12/09 11:19:15;;;;;;;7.88;3.45;;;5.00;82.00;;;;;;5057592;28;20040;-65
2021/12/09 11:21:45;;;;;;;8.35;3.78;;;5.00;82.00;;;;;;5058255;28;20219;-65
2021/12/09 11:24:15;;;;;;;5.82;3.58;;;5.10;81.90;;;;;;5058398;28;20112;-66
2021/12/09 11:26:57;;;;;;;6.70;4.00;;;5.10;81.80;;;;;;5045886;28;20040;-63
2021/12/09 11:29:35;;;;;;;6.70;3.30;;;5.10;81.80;;;;;;5059455;28;20040;-65
2021/12/09 11:35:23;;;;;;;6.38;3.35;;;5.10;81.50;;;;;;5058413;28;20044;-65
2021/12/09 11:38:21;;;;;;;5.85;3.47;;;5.10;81.40;;;;;;5058573;28;20036;-65
2021/12/09 11:40:56;;;;;;;6.00;3.10;;;5.10;81.40;;;;;;5041027;28;20068;-66
2021/12/09 11:43:23;;;;;;;6.57;3.42;;;5.10;81.40;;;;;;5058564;28;20423;-66
2021/12/09 11:45:51;;;;;;;7.00;3.30;;;5.10;81.40;;;;;;5057623;28;20090;-67
2021/12/09 11:48:17;;;;;;;6.55;4.28;;;5.10;81.50;;;;;;5058105;28;20032;-66
2021/12/09 11:50:47;;;;;;;5.75;3.80;;;5.10;81.40;;;;;;5057546;28;20099;-66
2021/12/09 11:53:15;;;;;;;5.43;3.20;;;5.10;81.30;;;;;;5058878;28;20557;-66
2021/12/09 11:55:49;;;;;;;5.82;3.80;;;5.10;81.30;;;;;;5058024;28;20045;-66
2021/12/09 11:58:21;;;;;;;6.65;3.30;;;5.00;81.30;;;;;;5059310;28;20118;-66
2021/12/09 12:12:49;;;;;;;5.72;3.38;;;5.00;81.40;;;;;;5054719;28;20538;-66
2021/12/09 12:15:43;;;;;;;7.90;3.65;;;5.00;81.40;;;;;;5056683;28;20123;-66
2021/12/09 12:21:17;;;;;;;8.02;3.78;;;5.00;81.40;;;;;;5058113;28;20044;-66
2021/12/09 12:24:00;;;;;;;6.97;3.80;;;5.00;81.40;;;;;;5056604;28;20032;-66
2021/12/09 12:41:09;;;;;;;7.95;3.58;;;5.00;81.30;;;;;;4976198;28;20409;-67
2021/12/09 12:43:54;;;;;;;5.30;3.42;;;5.10;81.40;;;;;;5043797;28;20024;-65
2021/12/09 12:46:52;;;;;;;6.75;3.90;;;5.10;81.30;;;;;;5056903;28;20025;-65
2021/12/09 12:49:33;;;;;;;4.22;3.30;;;5.10;81.30;;;;;;5058476;28;20028;-66
2021/12/09 12:52:08;;;;;;;5.07;3.47;;;5.10;81.30;;;;;;5057849;28;20358;-64
2021/12/09 12:54:50;;;;;;;;;;;5.10;81.30;;;;;;5057576;28;20403;-66
2021/12/09 12:57:32;;;;;;;4.75;3.60;;;5.10;81.30;;;;;;5057803;28;20011;-67
2021/12/09 13:00:19;;;;;;;6.60;3.72;;;5.10;81.10;;;;;;5055762;28;20148;-66
2021/12/09 13:03:05;;;;;;;6.78;3.90;;;5.10;81.20;;;;;;5058018;28;20388;-66
2021/12/09 13:08:52;;;;;;;6.28;3.70;;;5.00;81.10;;;;;;5057701;28;20096;-66
2021/12/09 13:11:41;;;;;;;7.07;3.92;;;5.00;81.10;;;;;;5058647;28;20364;-65
2021/12/09 13:14:13;;;;;;;5.68;3.40;;;5.00;82.00;;;;;;5039441;28;20148;-65
2021/12/09 13:17:26;;;;;;;5.57;3.60;;;5.00;81.20;;;;;;5056836;28;20036;-66
2021/12/09 13:20:05;;;;;;;6.18;3.85;;;5.00;81.00;;;;;;5055762;28;20044;-66
2021/12/09 13:22:37;;;;;;;6.28;3.83;;;5.00;81.10;;;;;;5058967;28;20032;-66
2021/12/09 13:25:28;;;;;;;5.75;3.45;;;5.00;81.20;;;;;;5041330;28;20399;-66
2021/12/09 13:28:02;;;;;;;7.47;4.03;;;5.00;81.20;;;;;;5044061;28;20051;-68
2021/12/09 13:39:52;;;;;;;8.38;3.50;;;4.90;81.10;;;;;;5058708;28;20032;-65
2021/12/09 13:47:43;;;;;;;6.35;3.80;;;4.90;81.00;;;;;;5059615;28;20141;-66
2021/12/09 13:56:09;;;;;;;5.55;3.13;;;4.90;81.00;;;;;;5060815;28;20056;-66
2021/12/09 13:58:35;;;;;;;8.95;4.35;;;4.90;81.10;;;;;;5059405;28;20071;-66
2021/12/09 14:01:01;;;;;;;6.45;4.13;;;4.80;81.10;;;;;;5060787;28;20399;-66
2021/12/09 14:03:27;;;;;;;7.35;4.63;;;4.80;81.90;;;;;;5059934;28;20455;-66
2021/12/09 14:05:55;;;;;;;10.23;4.57;;;4.80;81.20;;;;;;5060153;28;20491;-66
2021/12/09 14:08:37;;;;;;;7.90;4.50;;;4.80;81.20;;;;;;5059231;28;20040;-66
2021/12/09 14:11:09;;;;;;;7.80;4.35;;;4.80;81.30;;;;;;5060385;28;20988;-66
2021/12/09 14:13:37;;;;;;;7.22;4.57;;;4.80;81.30;;;;;;5060850;28;20106;-65